createdAt,value
2019-05-03T00:02:24.247Z,11.07
2019-05-03T00:04:59.811Z,10.63
2019-05-03T00:07:31.656Z,11.23
2019-05-03T00:10:02.852Z,12.40
2019-05-03T00:12:33.018Z,11.77
2019-05-03T00:15:14.069Z,11.37
2019-05-03T00:17:43.748Z,14.00
2019-05-03T00:20:14.082Z,13.40
2019-05-03T00:22:44.112Z,15.23
2019-05-03T00:25:14.206Z,15.50
2019-05-03T00:27:43.942Z,16.20
2019-05-03T00:30:14.210Z,15.60
2019-05-03T00:32:44.542Z,17.50
2019-05-03T00:35:19.474Z,17.20
2019-05-03T00:37:52.608Z,18.20
2019-05-03T00:40:29.027Z,18.70
2019-05-03T00:42:59.043Z,16.60
2019-05-03T00:45:28.799Z,16.30
2019-05-03T00:47:58.623Z,16.07
2019-05-03T00:50:28.378Z,16.10
2019-05-03T00:52:58.067Z,16.70
2019-05-03T00:55:27.886Z,15.73
2019-05-03T00:57:57.649Z,16.53
2019-05-03T01:00:27.475Z,15.17
2019-05-03T01:02:57.327Z,15.57
2019-05-03T01:05:27.294Z,16.23
2019-05-03T01:07:57.440Z,14.10
2019-05-03T01:10:27.183Z,14.10
2019-05-03T01:12:57.147Z,14.93
2019-05-03T01:15:36.220Z,13.07
2019-05-03T01:18:07.847Z,11.77
2019-05-03T01:20:37.671Z,13.53
2019-05-03T01:23:07.486Z,13.07
2019-05-03T01:25:37.251Z,12.50
2019-05-03T01:28:07.315Z,13.43
2019-05-03T01:30:37.207Z,12.10
2019-05-03T01:33:07.286Z,13.30
2019-05-03T01:35:37.451Z,11.93
2019-05-03T01:38:07.532Z,12.57
2019-05-03T01:40:37.269Z,11.83
2019-05-03T01:43:07.163Z,10.60
2019-05-03T01:45:37.067Z,12.13
2019-05-03T01:48:16.702Z,13.10
2019-05-03T01:51:12.442Z,11.20
2019-05-03T01:53:42.262Z,11.97
2019-05-03T01:56:12.091Z,11.60
2019-05-03T01:58:41.909Z,12.17
2019-05-03T02:01:22.141Z,12.73
2019-05-03T02:03:58.661Z,13.87
2019-05-03T02:06:28.425Z,14.37
2019-05-03T02:08:58.521Z,13.53
2019-05-03T02:11:28.618Z,14.57
2019-05-03T02:13:58.692Z,15.63
2019-05-03T02:16:28.366Z,13.03
2019-05-03T02:18:58.493Z,15.00
2019-05-03T02:21:28.570Z,16.00
2019-05-03T02:23:58.413Z,13.90
2019-05-03T02:26:28.246Z,17.43
2019-05-03T02:28:58.346Z,16.23
2019-05-03T02:31:28.739Z,17.83
2019-05-03T02:33:58.845Z,17.80
2019-05-03T02:36:29.188Z,15.50
2019-05-03T02:38:59.299Z,17.60
2019-05-03T02:41:29.579Z,17.50
2019-05-03T02:44:00.055Z,17.30
2019-05-03T02:46:41.713Z,17.60
2019-05-03T02:49:27.963Z,17.27
2019-05-03T02:51:58.023Z,17.43
2019-05-03T02:54:28.143Z,16.13
2019-05-03T02:56:58.608Z,17.47
2019-05-03T02:59:28.989Z,16.20
2019-05-03T03:01:59.061Z,17.40
2019-05-03T03:04:29.159Z,17.90
2019-05-03T03:06:59.676Z,14.20
2019-05-03T03:09:30.274Z,15.27
2019-05-03T03:12:02.276Z,15.23
2019-05-03T03:14:36.267Z,15.43
2019-05-03T03:17:07.352Z,15.93
2019-05-03T03:19:39.466Z,14.37
2019-05-03T03:22:11.537Z,14.47
2019-05-03T03:24:45.757Z,13.13
2019-05-03T03:27:19.666Z,12.67
2019-05-03T03:29:55.171Z,14.07
2019-05-03T03:32:37.988Z,12.27
2019-05-03T03:35:21.239Z,12.37
2019-05-03T03:37:47.906Z,11.67
2019-05-03T03:40:19.550Z,11.30
2019-05-03T03:42:50.987Z,10.57
2019-05-03T03:45:21.103Z,11.80
2019-05-03T03:47:56.220Z,12.03
2019-05-03T03:50:26.179Z,11.57
2019-05-03T03:52:58.895Z,10.80
2019-05-03T03:55:31.713Z,11.63
2019-05-03T03:58:01.883Z,9.93
2019-05-03T04:00:31.914Z,10.20
2019-05-03T04:03:01.798Z,9.63
2019-05-03T04:05:31.780Z,9.70
2019-05-03T04:08:02.356Z,10.20
2019-05-03T04:10:32.400Z,10.10
2019-05-03T04:13:02.256Z,8.77
2019-05-03T04:15:56.162Z,10.53
2019-05-03T04:18:35.943Z,10.17
2019-05-03T04:21:05.598Z,8.70
2019-05-03T04:23:36.028Z,8.40
2019-05-03T04:26:07.020Z,8.67
2019-05-03T04:28:38.312Z,8.43
2019-05-03T04:31:08.151Z,8.17
2019-05-03T04:33:38.010Z,11.00
2019-05-03T04:36:07.847Z,7.57
2019-05-03T04:38:37.780Z,9.10
2019-05-03T04:41:07.614Z,6.97
2019-05-03T04:43:37.431Z,6.50
2019-05-03T04:46:16.361Z,6.70
2019-05-03T04:48:46.218Z,6.90
2019-05-03T04:51:16.801Z,6.13
2019-05-03T04:53:51.911Z,5.70
2019-05-03T04:56:21.723Z,4.70
2019-05-03T04:58:51.532Z,4.40
2019-05-03T05:01:21.339Z,4.40
2019-05-03T05:03:51.071Z,3.77
2019-05-03T05:06:20.820Z,3.37
2019-05-03T05:08:51.870Z,3.90
2019-05-03T05:11:21.710Z,3.90
2019-05-03T05:13:51.795Z,4.17
2019-05-03T05:16:21.615Z,3.63
2019-05-03T05:18:56.051Z,3.90
2019-05-03T05:21:35.414Z,4.70
2019-05-03T05:24:06.121Z,4.53
2019-05-03T05:26:55.033Z,4.93
2019-05-03T05:29:27.236Z,4.40
2019-05-03T05:31:57.380Z,3.90
2019-05-03T05:34:27.431Z,4.00
2019-05-03T05:36:57.270Z,4.80
2019-05-03T05:39:27.078Z,4.53
2019-05-03T05:41:57.115Z,4.77
2019-05-03T05:44:27.222Z,5.07
2019-05-03T05:47:19.784Z,4.30
2019-05-03T05:49:59.447Z,4.67
2019-05-03T05:52:30.576Z,4.43
2019-05-03T05:55:15.583Z,3.80
2019-05-03T05:58:07.453Z,4.33
2019-05-03T06:00:42.146Z,4.57
2019-05-03T06:03:12.596Z,4.87
2019-05-03T06:05:44.628Z,3.83
2019-05-03T06:08:51.880Z,4.90
2019-05-03T06:11:26.827Z,4.80
2019-05-03T06:14:11.039Z,4.30
2019-05-03T06:16:50.375Z,4.33
2019-05-03T06:19:39.715Z,4.27
2019-05-03T06:22:28.937Z,5.30
2019-05-03T06:25:06.542Z,4.80
2019-05-03T06:27:38.205Z,5.63
2019-05-03T06:30:17.026Z,5.40
2019-05-03T06:32:47.274Z,5.10
2019-05-03T06:35:17.442Z,5.47
2019-05-03T06:37:47.559Z,5.10
2019-05-03T06:40:18.455Z,4.37
2019-05-03T06:42:54.661Z,5.10
2019-05-03T06:45:20.642Z,4.67
2019-05-03T06:47:50.987Z,4.90
2019-05-03T06:50:27.539Z,5.07
2019-05-03T06:52:54.681Z,6.07
2019-05-03T06:55:24.740Z,5.60
2019-05-03T06:57:55.002Z,5.63
2019-05-03T07:00:41.856Z,4.80
2019-05-03T07:03:22.494Z,5.63
2019-05-03T07:06:14.983Z,5.80
2019-05-03T07:09:07.659Z,6.27
2019-05-03T07:11:37.873Z,6.33
2019-05-03T07:14:08.063Z,5.63
2019-05-03T07:16:37.836Z,6.03
2019-05-03T07:19:08.007Z,5.57
2019-05-03T07:21:38.171Z,5.70
2019-05-03T07:24:08.070Z,5.73
2019-05-03T07:26:38.703Z,6.77
2019-05-03T07:29:08.499Z,9.20
2019-05-03T07:31:38.462Z,10.53
2019-05-03T07:34:08.308Z,9.60
2019-05-03T07:36:38.066Z,9.67
2019-05-03T07:39:08.386Z,10.20
2019-05-03T07:41:38.307Z,10.40
2019-05-03T07:44:08.196Z,11.80
2019-05-03T07:46:38.119Z,10.20
2019-05-03T07:49:08.082Z,9.00
2019-05-03T07:51:38.596Z,11.60
2019-05-03T07:54:09.003Z,10.73
2019-05-03T07:56:50.132Z,11.70
2019-05-03T07:59:20.593Z,12.40
2019-05-03T08:01:54.597Z,11.93
2019-05-03T08:04:25.522Z,10.90
2019-05-03T08:06:55.759Z,12.07
2019-05-03T08:09:25.902Z,11.53
2019-05-03T08:11:56.126Z,10.80
2019-05-03T08:14:25.997Z,11.80
2019-05-03T08:16:56.340Z,11.13
2019-05-03T08:19:27.075Z,10.83
2019-05-03T08:21:57.422Z,12.20
2019-05-03T08:24:27.546Z,11.50
2019-05-03T08:26:58.033Z,11.57
2019-05-03T08:29:28.012Z,12.90
2019-05-03T08:32:21.847Z,12.33
2019-05-03T08:35:15.279Z,13.77
2019-05-03T08:37:51.087Z,13.33
2019-05-03T08:40:24.424Z,14.93
2019-05-03T08:42:54.966Z,12.80
2019-05-03T08:45:25.579Z,12.90
2019-05-03T08:47:55.645Z,12.43
2019-05-03T08:50:25.798Z,13.70
2019-05-03T08:52:55.985Z,14.37
2019-05-03T08:55:26.257Z,12.60
2019-05-03T08:57:56.193Z,12.80
2019-05-03T09:00:28.163Z,13.60
2019-05-03T09:02:58.936Z,14.87
2019-05-03T09:05:28.811Z,15.00
2019-05-03T09:07:59.239Z,15.73
2019-05-03T09:10:35.198Z,13.37
2019-05-03T09:13:10.399Z,14.53
2019-05-03T09:15:40.796Z,13.80
2019-05-03T09:18:13.925Z,15.63
2019-05-03T09:20:42.272Z,15.80
2019-05-03T09:23:12.123Z,16.20
2019-05-03T09:25:42.062Z,15.50
2019-05-03T09:28:11.882Z,15.90
2019-05-03T09:30:41.843Z,15.30
2019-05-03T09:33:11.693Z,16.23
2019-05-03T09:35:41.561Z,15.50
2019-05-03T09:38:11.452Z,16.93
2019-05-03T09:40:41.887Z,17.33
2019-05-03T09:43:11.777Z,19.67
2019-05-03T09:45:41.938Z,16.40
2019-05-03T09:48:12.133Z,17.43
2019-05-03T09:50:44.958Z,15.83
2019-05-03T09:53:16.936Z,14.60
2019-05-03T09:55:47.133Z,16.67
2019-05-03T09:58:17.319Z,14.20
2019-05-03T10:00:48.750Z,15.20
2019-05-03T10:03:18.599Z,14.17
2019-05-03T10:05:48.479Z,14.10
2019-05-03T10:08:18.337Z,15.27
2019-05-03T10:11:06.135Z,15.47
2019-05-03T10:13:36.507Z,16.30
2019-05-03T10:16:06.801Z,15.77
2019-05-03T10:18:36.953Z,14.43
2019-05-03T10:21:06.972Z,14.27
2019-05-03T10:23:45.395Z,13.07
2019-05-03T10:26:15.411Z,13.70
2019-05-03T10:28:45.811Z,15.10
2019-05-03T10:31:15.722Z,15.00
2019-05-03T10:34:05.775Z,14.37
2019-05-03T10:36:36.230Z,13.73
2019-05-03T10:39:07.365Z,14.60
2019-05-03T10:41:38.035Z,16.27
2019-05-03T10:44:07.901Z,15.07
2019-05-03T10:46:39.070Z,15.20
2019-05-03T10:49:09.047Z,16.00
2019-05-03T10:51:45.214Z,14.40
2019-05-03T10:54:15.535Z,14.30
2019-05-03T10:56:51.150Z,15.97
2019-05-03T10:59:22.407Z,13.83
2019-05-03T11:02:08.269Z,12.20
2019-05-03T11:04:38.195Z,14.30
2019-05-03T11:07:08.119Z,12.93
2019-05-03T11:09:48.535Z,13.97
2019-05-03T11:12:09.935Z,12.43
2019-05-03T11:14:40.077Z,12.27
2019-05-03T11:17:10.242Z,12.33
2019-05-03T11:19:40.572Z,10.33
2019-05-03T11:22:10.710Z,9.57
2019-05-03T11:24:40.928Z,10.37
2019-05-03T11:27:18.675Z,10.00
2019-05-03T11:29:48.606Z,11.80
2019-05-03T11:32:36.215Z,10.77
2019-05-03T11:35:17.110Z,9.13
2019-05-03T11:37:51.296Z,8.33
2019-05-03T11:40:21.724Z,8.90
2019-05-03T11:42:55.345Z,8.47
2019-05-03T11:45:25.644Z,9.03
2019-05-03T11:47:55.785Z,8.30
2019-05-03T11:50:26.053Z,14.40
2019-05-03T11:52:55.917Z,8.20
2019-05-03T11:55:26.809Z,7.37
2019-05-03T11:57:57.521Z,8.77
2019-05-03T12:00:32.653Z,7.80
2019-05-03T12:03:09.166Z,7.83
2019-05-03T12:05:39.831Z,8.60
2019-05-03T12:08:09.712Z,8.60
2019-05-03T12:10:52.860Z,8.60
2019-05-03T12:13:17.663Z,7.67
2019-05-03T12:15:47.530Z,7.67
2019-05-03T12:18:17.902Z,8.87
2019-05-03T12:20:49.320Z,8.07
2019-05-03T12:23:20.664Z,8.27
2019-05-03T12:25:52.133Z,8.03
2019-05-03T12:28:22.575Z,7.80
2019-05-03T12:30:52.495Z,7.87
2019-05-03T12:33:22.396Z,7.57
2019-05-03T12:35:52.355Z,7.40
2019-05-03T12:38:22.611Z,7.00
2019-05-03T12:40:54.263Z,7.90
2019-05-03T12:43:25.664Z,7.87
2019-05-03T12:45:56.235Z,7.83
2019-05-03T12:48:26.503Z,7.67
2019-05-03T12:50:57.885Z,6.43
2019-05-03T12:53:28.176Z,7.97
2019-05-03T12:55:58.636Z,6.73
2019-05-03T12:58:55.155Z,7.03
2019-05-03T13:01:52.072Z,7.40
2019-05-03T13:04:25.434Z,7.00
2019-05-03T13:07:07.953Z,6.40
2019-05-03T13:09:41.769Z,7.00
2019-05-03T13:12:14.762Z,6.93
2019-05-03T13:14:45.475Z,5.97
2019-05-03T13:17:35.434Z,6.90
2019-05-03T13:20:07.415Z,5.63
2019-05-03T13:22:37.362Z,5.87
2019-05-03T13:25:08.752Z,5.90
2019-05-03T13:27:38.726Z,5.70
2019-05-03T13:30:09.840Z,5.43
2019-05-03T13:32:40.107Z,5.50
2019-05-03T13:35:10.547Z,6.40
2019-05-03T13:37:40.919Z,6.30
2019-05-03T13:40:11.967Z,6.30
2019-05-03T13:42:54.254Z,7.40
2019-05-03T13:45:14.122Z,6.93
2019-05-03T13:47:45.434Z,6.37
2019-05-03T13:50:15.751Z,5.80
2019-05-03T13:52:46.579Z,5.00
2019-05-03T13:55:17.985Z,5.40
2019-05-03T13:57:48.666Z,6.13
2019-05-03T14:00:19.121Z,7.53
2019-05-03T14:02:49.243Z,5.17
2019-05-03T14:05:19.444Z,5.07
2019-05-03T14:07:49.731Z,5.60
2019-05-03T14:10:19.716Z,5.33
2019-05-03T14:12:50.016Z,6.00
2019-05-03T14:15:20.528Z,5.80
2019-05-03T14:17:50.626Z,6.50
2019-05-03T14:20:41.580Z,7.03
2019-05-03T14:23:11.542Z,6.70
2019-05-03T14:25:41.395Z,6.47
2019-05-03T14:28:11.242Z,5.50
2019-05-03T14:30:41.302Z,6.43
2019-05-03T14:33:11.265Z,19.30
2019-05-03T14:35:41.153Z,8.33
2019-05-03T14:38:11.106Z,4.87
2019-05-03T14:40:41.348Z,5.63
2019-05-03T14:43:11.725Z,5.30
2019-05-03T14:45:41.693Z,5.33
2019-05-03T14:48:11.543Z,5.10
2019-05-03T14:50:41.435Z,4.70
2019-05-03T14:53:11.368Z,5.77
2019-05-03T15:36:54.689Z,6.20
2019-05-03T15:39:25.079Z,5.90
2019-05-03T15:41:55.033Z,5.90
2019-05-03T15:44:44.909Z,6.00
2019-05-03T15:47:20.095Z,5.37
2019-05-03T15:49:50.108Z,7.00
2019-05-03T15:52:19.949Z,5.23
2019-05-03T15:54:50.054Z,5.77
2019-05-03T15:57:19.919Z,5.70
2019-05-03T15:59:50.087Z,5.90
2019-05-03T16:02:20.211Z,5.80
2019-05-03T16:04:50.282Z,5.90
2019-05-03T16:07:20.683Z,5.83
2019-05-03T16:09:50.953Z,5.43
2019-05-03T16:12:21.083Z,5.03
2019-05-03T16:14:51.170Z,5.50
2019-05-03T16:17:21.176Z,5.00
2019-05-03T16:19:51.666Z,5.43
2019-05-03T16:22:21.511Z,4.90
2019-05-03T16:24:51.676Z,5.50
2019-05-03T16:27:42.255Z,5.07
2019-05-03T16:30:27.855Z,5.27
2019-05-03T16:32:58.011Z,4.80
2019-05-03T16:35:28.196Z,5.33
2019-05-03T16:37:58.073Z,10.80
2019-05-03T16:40:27.968Z,6.57
2019-05-03T16:42:57.893Z,6.10
2019-05-03T16:45:27.743Z,5.70
2019-05-03T16:47:57.699Z,5.40
2019-05-03T16:50:27.619Z,5.10
2019-05-03T16:52:57.490Z,5.77
2019-05-03T16:55:27.337Z,5.50
2019-05-03T16:57:57.422Z,15.07
2019-05-03T17:00:28.061Z,6.37
2019-05-03T17:02:57.932Z,9.23
2019-05-03T17:05:47.218Z,5.03
2019-05-03T17:08:51.215Z,5.63
2019-05-03T17:11:22.033Z,4.70
2019-05-03T17:13:51.930Z,5.30
2019-05-03T17:16:21.883Z,4.93
2019-05-03T17:18:51.812Z,5.30
2019-05-03T17:21:21.678Z,7.20
2019-05-03T17:23:51.710Z,4.80
2019-05-03T17:26:21.539Z,6.27
2019-05-03T17:31:48.811Z,6.77
2019-05-03T17:34:19.180Z,6.40
2019-05-03T17:36:49.278Z,5.10
2019-05-03T17:39:26.286Z,5.27
2019-05-03T17:42:05.346Z,5.90
2019-05-03T17:44:39.912Z,4.27
2019-05-03T17:47:09.670Z,4.67
2019-05-03T17:49:39.999Z,3.97
2019-05-03T17:52:29.111Z,4.30
2019-05-03T17:55:10.771Z,3.57
2019-05-03T17:57:55.317Z,4.03
2019-05-03T18:00:44.658Z,4.20
2019-05-03T18:03:15.262Z,3.37
2019-05-03T18:05:53.553Z,4.10
2019-05-03T18:08:50.352Z,3.57
2019-05-03T18:14:16.146Z,3.50
2019-05-03T18:16:52.568Z,3.90
2019-05-03T18:19:22.831Z,4.27
2019-05-03T18:21:53.118Z,3.90
2019-05-03T18:24:35.608Z,4.00
2019-05-03T18:27:03.945Z,3.73
2019-05-03T18:29:34.650Z,3.50
2019-05-03T18:32:05.476Z,3.93
2019-05-03T18:34:37.833Z,3.80
2019-05-03T18:37:07.851Z,4.20
2019-05-03T18:39:39.906Z,4.60
2019-05-03T18:42:13.580Z,5.40
2019-05-03T18:48:29.731Z,4.43
2019-05-03T18:54:48.931Z,5.10
2019-05-03T18:57:20.170Z,5.93
2019-05-03T19:00:35.170Z,5.53
2019-05-03T19:06:34.680Z,6.80
2019-05-03T19:09:28.513Z,5.47
2019-05-03T19:12:08.271Z,6.20
2019-05-03T19:14:38.226Z,5.50
2019-05-03T19:17:24.904Z,6.20
2019-05-03T19:20:17.343Z,5.70
2019-05-03T19:23:09.179Z,5.20
2019-05-03T19:25:46.978Z,4.10
2019-05-03T19:28:10.906Z,4.87
2019-05-03T19:30:44.419Z,4.70
2019-05-03T19:33:14.675Z,4.93
2019-05-03T19:35:44.766Z,5.53
2019-05-03T19:38:15.205Z,5.77
2019-05-03T19:40:45.414Z,5.30
2019-05-03T19:43:20.518Z,5.13
2019-05-03T19:45:50.963Z,5.70
2019-05-03T19:48:21.350Z,5.93
2019-05-03T19:50:51.310Z,5.30
2019-05-03T19:53:40.188Z,5.43
2019-05-03T19:56:10.374Z,6.60
2019-05-03T19:58:40.378Z,5.20
2019-05-03T20:01:35.283Z,5.47
2019-05-03T20:04:15.782Z,5.03
2019-05-03T20:06:53.437Z,5.13
2019-05-03T20:09:24.528Z,4.53
2019-05-03T20:11:55.320Z,4.60
2019-05-03T20:14:25.848Z,5.70
2019-05-03T20:16:55.732Z,5.50
2019-05-03T20:19:25.854Z,6.00
2019-05-03T20:21:56.653Z,6.30
2019-05-03T20:24:26.762Z,5.43
2019-05-03T20:26:56.753Z,6.00
2019-05-03T20:29:26.689Z,6.30
2019-05-03T20:31:56.545Z,5.60
2019-05-03T20:34:28.807Z,4.80
2019-05-03T20:37:00.791Z,5.47
2019-05-03T20:39:31.275Z,4.80
2019-05-03T20:42:01.521Z,7.73
2019-05-03T20:44:54.477Z,5.93
2019-05-03T20:47:34.829Z,4.90
2019-05-03T20:50:16.163Z,4.67
2019-05-03T20:52:46.626Z,6.20
2019-05-03T20:55:19.634Z,4.60
2019-05-03T20:57:49.754Z,4.03
2019-05-03T21:00:25.425Z,4.00
2019-05-03T21:02:57.392Z,4.30
2019-05-03T21:05:31.261Z,4.00
2019-05-03T21:07:59.387Z,3.83
2019-05-03T21:10:29.667Z,3.97
2019-05-03T21:13:00.100Z,3.60
2019-05-03T21:15:51.684Z,3.77
2019-05-03T21:18:31.261Z,3.50
2019-05-03T21:21:08.543Z,3.30
2019-05-03T21:23:45.470Z,3.80
2019-05-03T21:26:16.565Z,4.90
2019-05-03T21:28:49.370Z,4.17
2019-05-03T21:31:38.399Z,4.70
2019-05-03T21:34:08.710Z,4.70
2019-05-03T21:36:38.670Z,4.83
2019-05-03T21:39:08.514Z,4.87
2019-05-03T21:41:57.822Z,5.03
2019-05-03T21:44:34.820Z,5.10
2019-05-03T21:47:16.006Z,4.93
2019-05-03T21:49:46.337Z,4.40
2019-05-03T21:52:16.590Z,4.40
2019-05-03T21:54:46.669Z,4.90
2019-05-03T21:57:16.886Z,4.27
2019-05-03T21:59:47.311Z,4.23
2019-05-03T22:02:17.872Z,4.27
2019-05-03T22:04:48.338Z,4.90
2019-05-03T22:07:20.410Z,4.93
2019-05-03T22:10:09.915Z,4.40
2019-05-03T22:12:40.043Z,3.93
2019-05-03T22:15:23.527Z,4.70
2019-05-03T22:18:10.858Z,5.07
2019-05-03T22:21:05.416Z,4.70
2019-05-03T22:23:45.359Z,4.60
2019-05-03T22:26:40.757Z,4.50
2019-05-03T22:29:11.097Z,5.27
2019-05-03T22:32:00.926Z,5.30
2019-05-03T22:34:30.785Z,5.37
2019-05-03T22:37:00.759Z,5.33
2019-05-03T22:39:31.259Z,3.97
2019-05-03T22:42:01.425Z,4.20
2019-05-03T22:44:32.172Z,3.63
2019-05-03T22:47:02.205Z,4.20
2019-05-03T22:49:32.179Z,4.07
2019-05-03T22:52:02.087Z,4.10
2019-05-03T22:54:32.062Z,5.13
2019-05-03T22:57:06.174Z,4.85
2019-05-03T22:59:55.327Z,5.10
2019-05-03T23:02:25.236Z,4.90
2019-05-03T23:04:55.540Z,5.03
2019-05-03T23:07:26.091Z,5.03
2019-05-03T23:09:55.862Z,5.60
2019-05-03T23:12:25.705Z,5.47
2019-05-03T23:14:55.442Z,5.67
2019-05-03T23:17:25.557Z,5.17
2019-05-03T23:20:07.788Z,5.07
2019-05-03T23:22:37.682Z,5.20
2019-05-03T23:25:07.544Z,5.53
2019-05-03T23:27:37.962Z,5.00
2019-05-03T23:30:26.890Z,6.00
2019-05-03T23:32:56.771Z,4.75
2019-05-03T23:35:26.771Z,5.17
2019-05-03T23:37:56.805Z,5.23
2019-05-03T23:40:26.639Z,5.77
2019-05-03T23:42:56.853Z,4.70
2019-05-03T23:45:26.883Z,6.20
2019-05-03T23:47:57.462Z,5.33
2019-05-03T23:50:27.446Z,5.47
2019-05-03T23:52:57.524Z,6.57
2019-05-03T23:55:49.438Z,5.60
2019-05-03T23:58:19.597Z,6.23
